Time;durP1;ratioP1;P1;durP2;ratioP2;P2;SDS_P1;SDS_P2;PMS_P1;PMS_P2;Temp;Humidity;BMP_temperature;BMP_pressure;BME280_temperature;BME280_humidity;BME280_pressure;Samples;Min_cycle;Max_cycle;Signal;HPM_P1;HPM_P2
2023/01/28 00:00:53;;;;;;;17.40;9.70;;;;;;;3.52;100.00;102930.69;5073154;28;20027;-94
2023/01/28 00:03:19;;;;;;;16.27;9.50;;;;;;;3.44;100.00;102912.72;5070901;28;20558;-93
2023/01/28 00:05:44;;;;;;;17.92;10.30;;;;;;;3.49;100.00;102931.25;5068615;28;20120;-93
2023/01/28 00:08:21;;;;;;;18.20;9.90;;;;;;;3.41;100.00;102930.69;5071383;28;20437;-93
2023/01/28 00:10:50;;;;;;;16.95;10.15;;;;;;;3.50;100.00;102939.28;5068093;28;20577;-94
2023/01/28 00:13:15;;;;;;;18.30;9.77;;;;;;;3.39;100.00;102938.44;5066070;28;20445;-95
2023/01/28 00:16:03;;;;;;;17.95;10.02;;;;;;;3.41;100.00;102929.88;5071762;28;20035;-94
2023/01/28 00:18:29;;;;;;;18.52;11.23;;;;;;;3.38;100.00;102958.94;5077033;28;20056;-94
2023/01/28 00:20:57;;;;;;;18.90;10.20;;;;;;;3.43;100.00;102956.16;5082460;28;20016;-96
2023/01/28 00:23:26;;;;;;;18.17;10.20;;;;;;;3.41;100.00;102963.09;5069932;28;20035;-93
2023/01/28 00:26:14;;;;;;;15.95;10.13;;;;;;;3.32;100.00;102965.59;5062552;28;20036;-94
2023/01/28 00:28:47;;;;;;;19.55;11.52;;;;;;;3.28;100.00;102956.19;5070534;28;20086;-93
2023/01/28 00:31:23;;;;;;;17.30;9.93;;;;;;;3.31;100.00;102963.94;5066124;28;20062;-95
2023/01/28 00:33:53;;;;;;;16.98;10.65;;;;;;;3.25;100.00;102949.28;5067703;28;20036;-94
2023/01/28 00:36:19;;;;;;;18.55;10.45;;;;;;;3.37;100.00;102957.31;5069691;28;20029;-94
2023/01/28 00:38:53;;;;;;;17.55;11.18;;;;;;;3.35;100.00;102947.59;5066575;28;20035;-93
2023/01/28 00:41:21;;;;;;;17.52;10.80;;;;;;;3.35;100.00;102948.44;5064120;28;20078;-94
2023/01/28 00:43:58;;;;;;;17.25;9.75;;;;;;;3.39;100.00;102941.22;5067183;28;20108;-93
2023/01/28 00:46:29;;;;;;;19.67;11.00;;;;;;;3.29;100.00;102927.41;5068440;28;20040;-94
2023/01/28 00:48:55;;;;;;;20.65;11.40;;;;;;;3.33;100.00;102936.81;5064819;28;20497;-95
2023/01/28 00:51:21;;;;;;;20.65;11.80;;;;;;;3.23;100.00;102917.44;5065348;28;20494;-95
2023/01/28 00:53:47;;;;;;;22.20;10.98;;;;;;;3.27;100.00;102943.47;5063956;28;20035;-94
2023/01/28 00:56:21;;;;;;;17.75;10.13;;;;;;;3.26;100.00;102934.31;5069656;28;20054;-94
2023/01/28 00:58:46;;;;;;;18.23;10.60;;;;;;;3.18;100.00;102925.75;5069293;28;20051;-94
2023/01/28 01:01:20;;;;;;;19.48;10.25;;;;;;;2.99;100.00;102929.09;5071548;28;20138;-94
2023/01/28 01:03:46;;;;;;;20.50;10.52;;;;;;;3.16;100.00;102933.50;5066545;28;20020;-94
2023/01/28 01:09:03;;;;;;;16.73;9.60;;;;;;;3.25;100.00;102937.38;5075005;28;20035;-93
2023/01/28 01:11:29;;;;;;;20.23;10.68;;;;;;;3.34;100.00;102945.94;5067657;28;20411;-94
2023/01/28 01:14:05;;;;;;;16.88;9.75;;;;;;;3.31;100.00;102936.28;5057273;28;20024;-93
2023/01/28 01:19:45;;;;;;;19.15;9.80;;;;;;;3.27;100.00;102943.47;5078321;28;20044;-94
2023/01/28 01:22:31;;;;;;;15.27;9.40;;;;;;;3.33;100.00;102942.34;5065210;28;20028;-95
2023/01/28 01:25:19;;;;;;;17.92;10.00;;;;;;;3.26;100.00;102947.31;5066964;28;20032;-93
2023/01/28 01:27:55;;;;;;;19.25;10.45;;;;;;;3.27;100.00;102949.00;5084166;28;20024;-93
2023/01/28 01:30:42;;;;;;;20.65;10.90;;;;;;;3.32;100.00;102950.94;5082571;28;20027;-94
2023/01/28 01:33:22;;;;;;;19.75;9.40;;;;;;;3.29;100.00;102937.63;5062679;28;20038;-94
2023/01/28 01:35:55;;;;;;;20.42;10.75;;;;;;;3.17;100.00;102946.22;5068044;28;20036;-95
2023/01/28 01:38:29;;;;;;;19.15;9.93;;;;;;;3.00;100.00;102943.75;5068366;28;20044;-95
2023/01/28 01:41:00;;;;;;;17.73;9.48;;;;;;;2.90;100.00;102949.25;5064337;28;20032;-93
2023/01/28 01:43:52;;;;;;;22.20;10.23;;;;;;;3.24;100.00;102958.66;5065767;28;20059;-93
2023/01/28 01:46:23;;;;;;;20.70;10.23;;;;;;;3.17;100.00;102951.78;5064511;28;20075;-93
2023/01/28 01:48:50;;;;;;;18.87;9.93;;;;;;;3.23;100.00;102964.50;5059447;28;20498;-93
2023/01/28 01:51:33;;;;;;;16.80;9.90;;;;;;;3.17;100.00;102954.53;5060618;28;20036;-95
2023/01/28 01:53:59;;;;;;;18.38;9.75;;;;;;;3.24;100.00;102968.91;5067663;28;20100;-94
2023/01/28 01:56:32;;;;;;;21.02;10.75;;;;;;;3.25;100.00;102960.34;5068672;28;20036;-93
2023/01/28 01:58:57;;;;;;;;;;;;;;;3.29;100.00;102974.47;5068079;28;22166;-94
2023/01/28 02:01:30;;;;;;;19.02;10.15;;;;;;;3.20;100.00;102959.50;5058045;28;20363;-94
2023/01/28 02:04:08;;;;;;;21.20;11.18;;;;;;;3.30;100.00;102972.53;5066566;28;20032;-93
2023/01/28 02:06:41;;;;;;;18.40;10.10;;;;;;;3.24;100.00;102980.81;5057554;28;20044;-94
2023/01/28 02:09:24;;;;;;;17.30;10.10;;;;;;;3.15;100.00;102962.28;5068374;28;20036;-94
2023/01/28 02:11:54;;;;;;;18.52;10.48;;;;;;;3.19;100.00;102978.06;5064655;28;20028;-94
2023/01/28 02:14:30;;;;;;;18.83;9.93;;;;;;;3.14;100.00;102953.16;5067091;28;20024;-93
2023/01/28 02:16:56;;;;;;;20.08;9.63;;;;;;;3.27;100.00;102985.00;5064469;28;20122;-95
2023/01/28 02:23:40;;;;;;;19.17;9.95;;;;;;;3.19;100.00;102966.16;5070825;28;20098;-95
2023/01/28 02:26:17;;;;;;;19.08;10.40;;;;;;;3.27;100.00;102979.44;5065955;28;20038;-95
2023/01/28 02:29:20;;;;;;;15.63;9.82;;;;;;;3.26;100.00;102984.13;5063021;28;20040;-95
2023/01/28 02:32:10;;;;;;;19.70;9.93;;;;;;;3.22;100.00;102984.97;5061869;28;20023;-94
2023/01/28 02:34:53;;;;;;;18.10;9.50;;;;;;;3.16;100.00;102981.38;5066586;28;20045;-95
2023/01/28 02:37:26;;;;;;;16.25;9.25;;;;;;;3.11;100.00;102989.66;5067533;28;20047;-94
2023/01/28 02:39:55;;;;;;;18.30;10.55;;;;;;;3.13;100.00;102993.00;5064616;28;20028;-94
2023/01/28 02:42:58;;;;;;;16.52;10.65;;;;;;;3.16;100.00;102977.75;5068087;28;20077;-94
2023/01/28 02:48:35;;;;;;;15.23;9.05;;;;;;;3.19;100.00;102988.31;5018581;28;20015;-95
2023/01/28 02:51:32;;;;;;;20.43;10.17;;;;;;;3.23;100.00;102983.88;5001024;28;20048;-94
2023/01/28 02:54:29;;;;;;;14.10;9.15;;;;;;;3.15;100.00;102976.13;5012721;28;20089;-94
2023/01/28 02:57:07;;;;;;;17.38;9.52;;;;;;;3.25;100.00;102981.66;5009426;28;20045;-95
2023/01/28 03:00:00;;;;;;;16.23;9.20;;;;;;;3.13;100.00;102959.78;5004558;28;20491;-94
2023/01/28 03:02:38;;;;;;;19.27;10.38;;;;;;;3.19;100.00;102957.84;5002783;28;20042;-92
2023/01/28 03:05:13;;;;;;;15.95;9.45;;;;;;;3.18;100.00;102981.09;5010022;28;20045;-95
2023/01/28 03:07:40;;;;;;;16.80;9.52;;;;;;;3.20;100.00;102971.41;5014406;28;20511;-93
2023/01/28 03:10:12;;;;;;;16.52;9.82;;;;;;;3.15;100.00;102959.50;5013364;28;20127;-94
2023/01/28 03:41:06;;;;;;;15.70;9.57;;;;;;;3.13;100.00;102972.78;5059802;28;20103;-94
2023/01/28 03:43:50;;;;;;;;;;;;;;;;;;;;;
2023/01/28 03:46:17;;;;;;;16.75;10.10;;;;;;;3.16;100.00;102966.69;5064600;28;20144;-94
2023/01/28 03:48:43;;;;;;;17.35;10.38;;;;;;;3.13;100.00;102968.09;5063411;28;20055;-95
2023/01/28 03:51:30;;;;;;;15.80;9.98;;;;;;;3.18;100.00;102975.56;5069643;28;20036;-95
2023/01/28 03:53:56;;;;;;;16.65;9.63;;;;;;;3.07;100.00;102954.53;5060865;28;20403;-94
2023/01/28 03:56:40;;;;;;;17.13;10.00;;;;;;;3.05;100.00;102960.34;5066256;28;20041;-94
2023/01/28 03:59:26;;;;;;;15.35;9.32;;;;;;;2.87;100.00;102964.47;5063630;28;20028;-95
2023/01/28 04:01:51;;;;;;;14.50;9.75;;;;;;;2.99;100.00;102959.50;5069885;28;20040;-94
2023/01/28 04:04:23;;;;;;;13.85;9.55;;;;;;;2.77;100.00;102956.97;5066168;28;20497;-94
2023/01/28 04:06:53;;;;;;;16.20;9.82;;;;;;;2.76;100.00;102968.31;5058575;28;20055;-94
2023/01/28 04:09:22;;;;;;;17.70;10.35;;;;;;;2.81;100.00;102952.56;5058258;28;20025;-94
2023/01/28 04:11:49;;;;;;;14.75;8.60;;;;;;;2.86;100.00;102973.88;5065620;28;20026;-93
2023/01/28 04:14:18;;;;;;;13.02;8.88;;;;;;;2.74;100.00;102981.56;5061403;28;20115;-93
2023/01/28 04:17:10;;;;;;;;;;;;;;;;;;;;;
2023/01/28 04:19:42;;;;;;;16.15;9.73;;;;;;;2.77;100.00;102986.56;5078639;28;20024;-94
2023/01/28 04:22:10;;;;;;;13.40;8.80;;;;;;;2.73;100.00;102985.47;5057285;28;22049;-95
2023/01/28 04:24:49;;;;;;;15.18;9.13;;;;;;;2.78;100.00;102982.69;5059844;28;20040;-95
2023/01/28 04:27:17;;;;;;;13.43;8.70;;;;;;;2.77;100.00;102986.56;5063529;28;20023;-95
2023/01/28 04:29:43;;;;;;;14.88;9.40;;;;;;;2.81;100.00;102988.53;5073733;28;20044;-94
2023/01/28 04:32:08;;;;;;;15.73;8.98;;;;;;;2.67;100.00;102992.09;5068561;28;20028;-94
2023/01/28 04:34:34;;;;;;;14.98;8.93;;;;;;;2.57;100.00;103004.78;5066894;28;20032;-94
2023/01/28 04:37:29;;;;;;;18.45;8.88;;;;;;;2.72;100.00;103005.91;5070386;28;20028;-94
2023/01/28 04:40:15;;;;;;;16.85;9.98;;;;;;;2.66;100.00;102994.03;5081132;28;20102;-95
2023/01/28 04:42:41;;;;;;;15.95;9.23;;;;;;;2.41;100.00;102980.94;5073334;28;20035;-95
2023/01/28 04:45:07;;;;;;;16.52;9.18;;;;;;;2.68;100.00;102989.06;5062740;28;20037;-93
2023/01/28 04:48:11;;;;;;;;;;;;;;;;;;;;;
2023/01/28 04:50:55;;;;;;;18.80;10.15;;;;;;;2.74;100.00;102976.03;5087545;28;20028;-94
2023/01/28 04:53:23;;;;;;;15.35;8.30;;;;;;;2.69;100.00;102978.81;5066032;28;20111;-95
2023/01/28 04:55:48;;;;;;;18.48;10.75;;;;;;;2.71;100.00;102963.59;5067881;28;20039;-94
2023/01/28 04:58:14;;;;;;;18.90;8.75;;;;;;;2.79;100.00;102973.31;5066110;28;20674;-93
2023/01/28 05:00:42;;;;;;;18.38;10.00;;;;;;;2.59;100.00;102974.06;5072141;28;20042;-94
2023/01/28 05:03:19;;;;;;;17.48;9.80;;;;;;;2.69;98.54;102984.34;5062803;28;20096;-94
2023/01/28 05:05:45;;;;;;;15.70;8.82;;;;;;;2.71;99.86;102968.31;5067961;28;20109;-94
2023/01/28 05:08:10;;;;;;;15.48;8.77;;;;;;;2.56;97.07;102958.88;5057829;28;20486;-94
2023/01/28 05:10:36;;;;;;;17.15;8.98;;;;;;;2.68;100.00;102966.06;5068140;28;20541;-95
2023/01/28 05:13:02;;;;;;;18.95;9.98;;;;;;;2.82;100.00;102990.16;5066723;28;20028;-95
2023/01/28 05:15:28;;;;;;;16.40;9.05;;;;;;;2.77;100.00;102964.44;5054524;28;20020;-95
2023/01/28 05:18:04;;;;;;;15.75;9.10;;;;;;;2.51;98.59;102961.63;5063302;28;20387;-94
2023/01/28 05:20:30;;;;;;;16.73;9.43;;;;;;;2.56;98.49;102958.88;5073511;28;20066;-93
2023/01/28 05:22:56;;;;;;;14.10;8.73;;;;;;;2.60;100.00;102973.00;5080464;28;20029;-94
2023/01/28 05:25:24;;;;;;;17.20;9.45;;;;;;;2.63;99.33;102976.00;5069926;28;20020;-94
2023/01/28 05:27:51;;;;;;;14.55;8.77;;;;;;;2.77;99.52;103000.41;5061176;28;20044;-95
2023/01/28 05:30:22;;;;;;;16.13;8.55;;;;;;;2.75;99.33;102980.50;5065075;28;20028;-95
2023/01/28 05:32:48;;;;;;;15.63;9.00;;;;;;;2.61;99.10;102978.25;5064905;28;20020;-94
2023/01/28 05:35:29;;;;;;;13.50;8.15;;;;;;;2.78;99.79;102994.63;5063009;28;20059;-93
2023/01/28 05:37:55;;;;;;;14.48;8.88;;;;;;;2.60;99.57;102982.09;5077812;28;20670;-93
2023/01/28 05:40:21;;;;;;;15.20;8.82;;;;;;;2.73;98.56;102993.75;5078628;28;20561;-94
2023/01/28 05:43:10;;;;;;;18.17;9.55;;;;;;;2.70;98.97;102986.00;5068716;28;20027;-94
2023/01/28 05:45:39;;;;;;;17.35;9.50;;;;;;;2.72;99.29;102978.25;5062439;28;20036;-96
2023/01/28 05:48:41;;;;;;;15.52;8.75;;;;;;;2.72;98.80;102979.09;5075358;28;20448;-93
2023/01/28 05:51:32;;;;;;;20.88;11.23;;;;;;;2.69;100.00;102970.53;5067304;28;20353;-94
2023/01/28 05:53:58;;;;;;;17.45;9.88;;;;;;;2.73;100.00;102968.88;5066982;28;20032;-95
2023/01/28 05:56:37;;;;;;;16.35;9.70;;;;;;;2.75;99.71;102973.00;5062392;28;20069;-95
2023/01/28 05:59:39;;;;;;;18.65;10.45;;;;;;;2.73;99.79;102982.69;5069397;28;20036;-95
2023/01/28 06:02:04;;;;;;;18.52;10.60;;;;;;;2.65;99.12;102971.03;5069045;28;20116;-94
2023/01/28 06:05:08;;;;;;;17.98;10.27;;;;;;;2.78;98.90;102982.69;5075072;28;20114;-93
2023/01/28 06:08:05;;;;;;;16.83;9.38;;;;;;;2.70;99.61;102955.56;5065460;28;20139;-93
2023/01/28 06:10:31;;;;;;;22.40;10.63;;;;;;;2.71;100.00;102952.53;5056652;28;20040;-93
2023/01/28 06:12:56;;;;;;;17.83;10.35;;;;;;;2.71;100.00;102954.47;5068958;28;20498;-93
2023/01/28 06:15:30;;;;;;;19.63;11.70;;;;;;;2.62;97.11;102971.59;5067234;28;20093;-93
2023/01/28 06:18:24;;;;;;;20.60;11.48;;;;;;;2.55;96.90;102957.22;5069748;28;20035;-93
2023/01/28 06:20:49;;;;;;;19.45;10.70;;;;;;;2.76;96.91;102979.38;5060351;28;20677;-94
2023/01/28 06:23:23;;;;;;;22.55;12.38;;;;;;;2.76;98.40;102969.16;5066901;28;20085;-94
2023/01/28 06:25:53;;;;;;;18.67;9.88;;;;;;;2.69;98.72;102984.34;5061251;28;20055;-95
2023/01/28 06:28:29;;;;;;;20.10;11.55;;;;;;;2.59;98.65;102966.63;5068171;28;20024;-94
2023/01/28 06:31:20;;;;;;;22.45;11.00;;;;;;;2.64;99.62;102972.16;5067655;28;20115;-94
2023/01/28 06:33:51;;;;;;;22.92;10.63;;;;;;;2.62;97.76;102966.06;5058590;28;20209;-94
2023/01/28 06:36:17;;;;;;;20.17;10.25;;;;;;;2.65;99.34;102971.03;5069544;28;20038;-94
2023/01/28 06:38:42;;;;;;;19.75;11.15;;;;;;;2.56;97.40;102974.63;5070072;28;20035;-93
2023/01/28 06:41:08;;;;;;;19.45;10.82;;;;;;;2.42;96.37;102988.13;5062647;28;20089;-93
2023/01/28 06:43:36;;;;;;;19.05;10.50;;;;;;;2.56;99.21;102981.00;5064375;28;20036;-94
2023/01/28 06:46:09;;;;;;;18.90;10.05;;;;;;;2.52;98.48;102968.81;5069112;28;20023;-93
2023/01/28 06:48:41;;;;;;;19.52;11.05;;;;;;;2.64;100.00;102991.53;5066193;28;20058;-95
2023/01/28 06:51:06;;;;;;;21.88;9.60;;;;;;;2.60;97.08;103007.00;5068221;28;20036;-96
2023/01/28 06:53:32;;;;;;;17.40;8.98;;;;;;;2.52;97.19;102995.63;5069197;28;20081;-94
2023/01/28 06:56:06;;;;;;;19.15;10.02;;;;;;;2.47;98.54;102987.31;5068360;28;20464;-94
2023/01/28 06:58:32;;;;;;;19.23;9.88;;;;;;;2.55;98.23;102997.84;5062341;28;20488;-94
2023/01/28 07:00:57;;;;;;;19.25;10.68;;;;;;;2.49;99.26;102988.72;5064949;28;20028;-93
2023/01/28 07:03:26;;;;;;;19.58;10.90;;;;;;;2.60;98.71;102990.41;5069439;28;20089;-95
2023/01/28 07:06:10;;;;;;;17.15;10.25;;;;;;;2.36;99.90;102983.66;5066350;28;20119;-94
2023/01/28 07:09:02;;;;;;;19.70;10.80;;;;;;;2.58;97.93;103011.97;5057174;28;20024;-93
2023/01/28 07:11:28;;;;;;;18.98;11.07;;;;;;;2.62;98.38;103018.63;5057550;28;20039;-93
2023/01/28 07:14:14;;;;;;;;;;;;;;;;;;;;;
2023/01/28 07:17:03;;;;;;;18.08;10.63;;;;;;;2.51;96.74;103005.00;5077907;28;20375;-93
2023/01/28 07:19:38;;;;;;;17.88;9.57;;;;;;;2.57;97.81;103004.78;5066172;28;20036;-94
2023/01/28 07:22:04;;;;;;;18.23;10.32;;;;;;;2.56;98.74;103005.88;5069371;28;20036;-94
2023/01/28 07:24:29;;;;;;;18.05;10.60;;;;;;;2.67;96.87;103022.50;5061370;28;20376;-93
2023/01/28 07:26:55;;;;;;;16.75;10.13;;;;;;;2.70;97.12;103030.22;5062281;28;20367;-95
2023/01/28 07:29:48;;;;;;;20.60;10.70;;;;;;;2.62;97.59;103045.44;5065277;28;20028;-93
2023/01/28 07:32:16;;;;;;;17.70;10.65;;;;;;;2.35;96.21;103023.47;5066443;28;20415;-95
2023/01/28 07:34:41;;;;;;;18.83;10.73;;;;;;;2.56;99.48;103035.47;5064875;28;20142;-93
2023/01/28 07:37:08;;;;;;;16.15;9.60;;;;;;;2.52;99.58;103046.22;5060022;28;20032;-93
2023/01/28 07:39:34;;;;;;;21.10;10.48;;;;;;;2.36;100.00;103027.91;5061569;28;20028;-93
2023/01/28 07:42:02;;;;;;;18.92;10.80;;;;;;;2.45;99.15;103040.13;5060073;28;20361;-95
2023/01/28 07:44:28;;;;;;;18.80;9.95;;;;;;;2.55;98.71;103037.41;5062093;28;20047;-95
2023/01/28 07:46:54;;;;;;;17.85;10.15;;;;;;;2.54;98.21;103026.59;5064672;28;20040;-95
2023/01/28 07:49:19;;;;;;;19.20;9.52;;;;;;;2.53;99.31;103025.78;5061786;28;20146;-95
2023/01/28 07:51:59;;;;;;;21.08;11.30;;;;;;;2.55;99.21;103039.31;5069515;28;20511;-95
2023/01/28 07:54:25;;;;;;;18.58;10.48;;;;;;;2.65;99.64;103044.88;5061939;28;20028;-93
2023/01/28 07:57:08;;;;;;;20.80;11.30;;;;;;;2.55;99.54;103031.88;5063414;28;20459;-95
2023/01/28 07:59:42;;;;;;;20.00;10.40;;;;;;;2.65;100.00;103037.41;5064712;28;20469;-93
2023/01/28 08:02:11;;;;;;;20.88;10.23;;;;;;;2.70;100.00;103049.59;5063293;28;20020;-94
2023/01/28 08:05:00;;;;;;;17.60;10.32;;;;;;;2.69;99.43;103046.00;5086207;28;20036;-93
2023/01/28 08:07:26;;;;;;;21.35;10.80;;;;;;;2.59;100.00;103041.28;5067286;28;20032;-93
2023/01/28 08:09:52;;;;;;;21.55;10.35;;;;;;;2.55;99.31;103036.53;5059716;28;20058;-93
2023/01/28 08:13:19;;;;;;;21.67;10.57;;;;;;;2.63;99.98;103034.09;5067518;28;20056;-93
2023/01/28 08:16:07;;;;;;;22.40;10.90;;;;;;;2.61;100.00;103039.09;5046912;28;20055;-94
2023/01/28 08:18:39;;;;;;;19.50;11.40;;;;;;;2.50;99.54;103018.00;5084921;28;20024;-94
2023/01/28 08:21:53;;;;;;;19.42;11.40;;;;;;;2.51;100.00;103033.50;5072542;28;20031;-94
2023/01/28 08:24:18;;;;;;;22.60;11.18;;;;;;;2.55;100.00;103028.25;5062798;28;20059;-95
2023/01/28 08:26:49;;;;;;;21.40;11.52;;;;;;;2.45;100.00;103023.53;5065901;28;20424;-93
2023/01/28 08:29:18;;;;;;;22.35;11.73;;;;;;;2.37;100.00;103007.47;5066970;28;20039;-94
2023/01/28 08:31:55;;;;;;;18.95;10.38;;;;;;;2.44;100.00;103024.63;5066255;28;20035;-93
2023/01/28 08:34:23;;;;;;;21.88;11.57;;;;;;;2.36;100.00;103011.31;5067548;28;20028;-94
2023/01/28 08:37:01;;;;;;;20.58;10.23;;;;;;;2.36;100.00;103017.69;5067158;28;20811;-93
2023/01/28 08:39:34;;;;;;;20.63;10.75;;;;;;;2.48;100.00;103039.56;5064875;28;20036;-94
2023/01/28 08:42:39;;;;;;;21.33;11.80;;;;;;;2.37;100.00;103040.63;5070856;28;20058;-94
2023/01/28 08:45:21;;;;;;;18.33;9.63;;;;;;;2.48;100.00;103067.19;5061886;28;20127;-93
2023/01/28 08:47:58;;;;;;;18.10;10.13;;;;;;;2.39;100.00;103052.25;5065082;28;20040;-94
2023/01/28 08:50:26;;;;;;;20.17;10.38;;;;;;;2.34;100.00;103055.81;5065201;28;20036;-92
2023/01/28 08:53:23;;;;;;;16.98;10.05;;;;;;;2.38;100.00;103050.56;5068402;28;20030;-93
2023/01/28 08:56:10;;;;;;;21.40;10.57;;;;;;;2.44;99.55;103057.78;5071530;28;20036;-93
2023/01/28 08:58:48;;;;;;;;;;;;;;;;;;;;;
2023/01/28 09:01:14;;;;;;;19.85;11.68;;;;;;;2.39;98.09;103068.81;5077874;28;20030;-94
2023/01/28 09:03:43;;;;;;;21.92;11.15;;;;;;;2.47;99.47;103056.41;5070563;28;20024;-94
2023/01/28 09:06:08;;;;;;;20.73;11.15;;;;;;;2.64;98.53;103082.78;5064783;28;20070;-93
2023/01/28 09:08:34;;;;;;;18.70;10.35;;;;;;;2.59;98.84;103063.41;5067655;28;20036;-94
2023/01/28 09:11:12;;;;;;;22.67;11.20;;;;;;;2.61;99.69;103076.94;5060087;28;20028;-95
2023/01/28 09:13:41;;;;;;;17.17;9.70;;;;;;;2.60;99.89;103070.59;5066577;28;20029;-93
2023/01/28 09:16:07;;;;;;;18.23;9.63;;;;;;;2.58;98.93;103075.56;5060134;28;20073;-93
2023/01/28 09:18:33;;;;;;;23.77;12.48;;;;;;;2.62;99.94;103073.91;5065052;28;20056;-94
2023/01/28 09:21:09;;;;;;;19.33;10.80;;;;;;;2.75;100.00;103100.22;5065976;28;20048;-94
2023/01/28 09:23:57;;;;;;;23.80;10.95;;;;;;;2.73;100.00;103099.66;5063181;28;20035;-92
2023/01/28 09:26:40;;;;;;;18.45;10.25;;;;;;;2.61;99.39;103093.53;5055833;28;20282;-94
2023/01/28 09:29:08;;;;;;;;;;;;;;;2.69;99.68;103111.53;5060761;28;20047;-93
2023/01/28 09:32:16;;;;;;;20.90;11.63;;;;;;;2.67;100.00;103113.75;5062860;28;19923;-94
2023/01/28 09:34:44;;;;;;;18.42;10.23;;;;;;;2.59;100.00;103082.75;5048450;28;20043;-94
2023/01/28 09:37:13;;;;;;;20.83;10.95;;;;;;;2.69;100.00;103101.31;5065468;28;20028;-94
2023/01/28 09:39:56;;;;;;;21.95;11.32;;;;;;;2.66;100.00;103096.34;5065744;28;20038;-94
2023/01/28 09:42:47;;;;;;;22.85;11.30;;;;;;;2.74;98.53;103094.97;5067625;28;20024;-95
2023/01/28 09:45:49;;;;;;;23.45;12.13;;;;;;;2.45;99.09;103081.59;5067441;28;20031;-94
2023/01/28 09:48:34;;;;;;;20.70;11.68;;;;;;;2.65;99.06;103098.25;5054173;28;20028;-93
2023/01/28 09:51:01;;;;;;;19.98;10.35;;;;;;;2.74;100.00;103097.72;5064761;28;20036;-94
2023/01/28 09:57:05;;;;;;;22.00;10.57;;;;;;;2.46;96.59;103102.56;5036754;28;20036;-94
2023/01/28 09:59:45;;;;;;;20.00;10.95;;;;;;;2.53;95.43;103107.84;5046348;28;20032;-94
2023/01/28 10:02:32;;;;;;;22.63;11.68;;;;;;;2.68;96.44;103116.25;5044118;28;20320;-93
2023/01/28 10:05:29;;;;;;;;;;;;;;;;;;;;;
2023/01/28 10:08:58;;;;;;;22.58;10.10;;;;;;;2.38;93.43;103105.84;5065043;28;20052;-94
2023/01/28 10:11:48;;;;;;;18.73;10.45;;;;;;;2.59;99.13;103102.13;4990276;28;20034;-94
2023/01/28 10:14:42;;;;;;;21.52;11.02;;;;;;;2.54;98.15;103093.78;5016086;28;20032;-93
2023/01/28 10:17:25;;;;;;;20.77;10.32;;;;;;;2.53;95.37;103114.25;5057692;28;20425;-94
2023/01/28 10:19:57;;;;;;;;;;;;;;;2.36;96.68;103113.56;5041204;28;20045;-94
2023/01/28 10:22:32;;;;;;;22.20;11.13;;;;;;;2.19;95.54;103091.63;5050169;28;19955;-93
2023/01/28 10:25:08;;;;;;;19.75;10.10;;;;;;;2.50;96.78;103098.19;5048240;28;20397;-95
2023/01/28 10:27:36;;;;;;;20.55;10.43;;;;;;;2.58;96.43;103100.44;5043296;28;20044;-94
2023/01/28 10:30:16;;;;;;;18.45;10.25;;;;;;;2.60;96.16;103098.22;5048554;28;20020;-94
2023/01/28 10:32:52;;;;;;;17.83;10.10;;;;;;;2.68;99.05;103082.22;5060871;28;20508;-95
2023/01/28 10:35:21;;;;;;;22.92;11.52;;;;;;;2.59;93.96;103101.25;5045446;28;20058;-93
2023/01/28 10:37:47;;;;;;;24.23;13.20;;;;;;;2.55;95.10;103078.00;5047269;28;20464;-94
2023/01/28 10:40:15;;;;;;;22.50;11.05;;;;;;;2.57;97.08;103103.47;5048707;28;21640;-95
2023/01/28 10:42:41;;;;;;;23.33;12.65;;;;;;;2.52;96.81;103089.63;5048415;28;20112;-94
2023/01/28 10:45:20;;;;;;;28.30;12.45;;;;;;;3.69;94.95;103082.72;5046654;28;20056;-88
2023/01/28 10:48:01;;;;;;;24.95;12.60;;;;;;;3.06;95.62;103072.69;5049924;28;20041;-93
2023/01/28 10:50:29;;;;;;;21.65;11.27;;;;;;;2.79;95.48;103064.56;5047419;28;20032;-92
2023/01/28 10:53:00;;;;;;;21.27;11.07;;;;;;;2.90;98.00;103062.66;5047059;28;20017;-94
2023/01/28 10:55:29;;;;;;;26.90;12.68;;;;;;;2.89;96.87;103048.03;5050498;28;20024;-91
2023/01/28 10:57:55;;;;;;;24.05;12.38;;;;;;;2.76;98.33;103045.75;5066141;28;20028;-92
2023/01/28 11:00:27;;;;;;;23.42;12.35;;;;;;;2.76;95.55;103034.69;5049726;28;20154;-94
2023/01/28 11:02:53;;;;;;;23.90;12.63;;;;;;;2.82;96.93;103017.00;5050144;28;20024;-93
2023/01/28 11:05:21;;;;;;;22.35;12.35;;;;;;;2.66;95.15;103024.44;5060153;28;20051;-92
2023/01/28 11:07:48;;;;;;;23.48;11.90;;;;;;;2.64;97.04;103019.16;5048220;28;20410;-94
2023/01/28 11:10:25;;;;;;;24.30;11.82;;;;;;;2.49;95.58;103002.53;5042759;28;20066;-92
2023/01/28 11:12:55;;;;;;;25.65;13.10;;;;;;;2.63;96.36;102998.13;5062957;28;20040;-90
2023/01/28 11:15:20;;;;;;;21.77;10.70;;;;;;;2.54;95.50;102998.97;5048926;28;20067;-93
2023/01/28 11:17:48;;;;;;;18.65;9.70;;;;;;;2.78;98.45;102988.22;5044756;28;20067;-93
2023/01/28 11:20:21;;;;;;;21.52;10.38;;;;;;;2.64;96.66;102982.41;5048161;28;20052;-91
2023/01/28 11:22:47;;;;;;;17.60;9.48;;;;;;;2.72;96.23;102992.09;5048599;28;20056;-90
2023/01/28 11:25:34;;;;;;;23.15;11.85;;;;;;;2.72;95.75;102973.56;5047400;28;20117;-93
2023/01/28 11:28:04;;;;;;;20.45;10.30;;;;;;;2.67;95.40;102981.03;5057695;28;20380;-91
2023/01/28 11:30:33;;;;;;;21.30;10.82;;;;;;;2.74;95.46;102985.19;5039732;28;20032;-92
2023/01/28 11:33:17;;;;;;;18.63;9.73;;;;;;;2.81;97.35;102977.47;5047121;28;20021;-92
2023/01/28 11:35:52;;;;;;;18.00;9.52;;;;;;;2.87;93.87;102985.75;5053149;28;20021;-92
2023/01/28 11:38:21;;;;;;;16.90;8.43;;;;;;;2.73;93.92;102991.00;5044773;28;20028;-90
2023/01/28 11:40:51;;;;;;;17.55;10.13;;;;;;;2.90;96.15;102997.09;5071846;28;20025;-91
2023/01/28 11:43:21;;;;;;;18.65;9.23;;;;;;;2.85;93.55;103000.69;5049409;28;20446;-93
2023/01/28 11:45:59;;;;;;;15.05;9.10;;;;;;;3.01;95.47;103007.06;5055035;28;20111;-92
2023/01/28 11:49:08;;;;;;;16.88;7.50;;;;;;;2.79;92.53;103007.31;5042057;28;20056;-93
2023/01/28 11:51:42;;;;;;;10.55;5.93;;;;;;;3.94;100.00;103005.09;5046821;28;20455;-86
2023/01/28 11:54:30;;;;;;;17.02;8.10;;;;;;;3.68;89.61;102996.03;5024409;28;20017;-86
2023/01/28 11:57:08;;;;;;;19.42;9.13;;;;;;;3.26;91.36;102999.91;5026654;28;20449;-86
2023/01/28 11:59:46;;;;;;;18.23;9.27;;;;;;;2.97;92.48;103008.75;5027931;28;20033;-86
2023/01/28 12:02:29;;;;;;;18.27;7.97;;;;;;;4.07;89.18;103014.81;5043453;28;20128;-89
2023/01/28 12:05:07;;;;;;;18.10;8.27;;;;;;;3.40;91.99;103012.09;5031745;28;20029;-91
2023/01/28 12:07:42;;;;;;;17.23;9.40;;;;;;;3.41;93.72;103013.75;5029651;28;20028;-88
2023/01/28 12:10:22;;;;;;;16.95;7.95;;;;;;;3.36;94.30;103005.47;5032077;28;20068;-89
2023/01/28 12:13:28;;;;;;;14.45;8.77;;;;;;;3.30;93.36;103014.03;5044969;28;20029;-87
2023/01/28 12:16:37;;;;;;;16.13;8.02;;;;;;;3.31;92.95;103012.91;5015971;28;20041;-89
2023/01/28 12:19:15;;;;;;;20.88;9.05;;;;;;;3.34;94.53;103004.06;5044901;28;20057;-89
2023/01/28 12:22:11;;;;;;;16.13;7.60;;;;;;;3.34;93.32;102991.06;5045962;28;20021;-90
2023/01/28 12:24:45;;;;;;;13.25;6.88;;;;;;;3.36;93.76;102993.56;5029765;28;20174;-90
2023/01/28 12:27:29;;;;;;;12.85;7.22;;;;;;;3.38;93.11;103003.25;5031277;28;20031;-88
2023/01/28 12:30:03;;;;;;;12.30;6.43;;;;;;;3.23;92.15;103003.25;5043035;28;20049;-91
2023/01/28 12:32:47;;;;;;;13.05;6.88;;;;;;;3.49;92.01;102994.94;5049069;28;20104;-89
2023/01/28 12:35:34;;;;;;;16.77;8.40;;;;;;;3.47;91.89;102990.50;5031360;28;20487;-88
2023/01/28 12:38:02;;;;;;;9.85;5.22;;;;;;;3.60;92.06;102989.09;5018458;28;20033;-91
2023/01/28 12:40:59;;;;;;;12.82;6.57;;;;;;;3.69;90.40;102969.16;5042948;28;20026;-90
2023/01/28 12:43:55;;;;;;;9.85;5.63;;;;;;;3.62;93.69;102964.72;5044279;28;20028;-87
2023/01/28 12:46:40;;;;;;;13.13;6.45;;;;;;;3.64;91.32;102945.06;5043910;28;20124;-90
2023/01/28 12:49:13;;;;;;;12.38;6.57;;;;;;;3.71;90.26;102934.53;5057456;28;20037;-90